createdAt,value
2018-12-25T00:00:53.286Z,9.80
2018-12-25T00:03:22.720Z,10.37
2018-12-25T00:05:52.110Z,10.83
2018-12-25T00:08:21.508Z,9.87
2018-12-25T00:10:50.924Z,10.07
2018-12-25T00:13:20.312Z,11.07
2018-12-25T00:15:49.725Z,10.17
2018-12-25T00:18:19.108Z,10.07
2018-12-25T00:20:48.527Z,10.10
2018-12-25T00:23:17.944Z,9.47
2018-12-25T00:25:47.311Z,10.27
2018-12-25T00:28:16.703Z,9.30
2018-12-25T00:30:46.107Z,10.27
2018-12-25T00:33:15.489Z,9.33
2018-12-25T00:35:44.879Z,10.27
2018-12-25T00:38:14.287Z,10.70
2018-12-25T00:40:43.671Z,10.37
2018-12-25T00:43:13.057Z,10.37
2018-12-25T00:45:42.463Z,10.33
2018-12-25T00:48:11.839Z,11.30
2018-12-25T00:50:41.239Z,11.33
2018-12-25T00:53:10.615Z,12.23
2018-12-25T00:55:40.037Z,11.60
2018-12-25T00:58:09.409Z,11.23
2018-12-25T01:00:38.867Z,10.20
2018-12-25T01:03:08.200Z,11.13
2018-12-25T01:05:37.871Z,10.23
2018-12-25T01:08:07.267Z,10.50
2018-12-25T01:10:36.651Z,10.40
2018-12-25T01:13:06.279Z,10.80
2018-12-25T01:15:35.664Z,11.93
2018-12-25T01:18:05.068Z,10.97
2018-12-25T01:20:34.486Z,11.20
2018-12-25T01:23:04.017Z,10.60
2018-12-25T01:25:33.438Z,11.60
2018-12-25T01:28:02.824Z,9.90
2018-12-25T01:30:32.228Z,9.33
2018-12-25T01:33:01.676Z,10.73
2018-12-25T01:35:31.082Z,10.57
2018-12-25T01:38:00.486Z,10.07
2018-12-25T01:40:29.874Z,9.50
2018-12-25T01:42:59.313Z,10.33
2018-12-25T01:45:28.683Z,10.10
2018-12-25T01:47:58.195Z,11.57
2018-12-25T01:50:27.576Z,11.60
2018-12-25T01:52:56.953Z,11.47
2018-12-25T01:55:26.994Z,10.47
2018-12-25T01:57:56.395Z,10.03
2018-12-25T02:00:25.794Z,11.10
2018-12-25T02:02:55.183Z,12.13
2018-12-25T02:05:24.607Z,11.90
2018-12-25T02:07:54.266Z,10.40
2018-12-25T02:10:23.634Z,11.90
2018-12-25T02:12:53.052Z,11.37
2018-12-25T02:15:22.433Z,11.13
2018-12-25T02:17:51.838Z,11.27
2018-12-25T02:20:21.210Z,12.50
2018-12-25T02:22:50.727Z,10.43
2018-12-25T02:25:20.143Z,9.77
2018-12-25T02:27:49.541Z,11.73
2018-12-25T02:30:18.965Z,11.43
2018-12-25T02:32:48.578Z,11.90
2018-12-25T02:35:18.158Z,12.03
2018-12-25T02:37:47.527Z,11.63
2018-12-25T02:40:17.032Z,11.13
2018-12-25T02:42:46.426Z,11.00
2018-12-25T02:45:15.809Z,11.73
2018-12-25T02:47:45.231Z,12.33
2018-12-25T02:50:14.635Z,11.63
2018-12-25T02:52:44.063Z,11.43
2018-12-25T02:55:13.463Z,11.27
2018-12-25T02:57:42.990Z,11.30
2018-12-25T03:00:12.375Z,11.80
2018-12-25T03:02:41.993Z,12.17
2018-12-25T03:05:11.448Z,11.67
2018-12-25T03:07:40.921Z,12.57
2018-12-25T03:10:10.417Z,11.67
2018-12-25T03:12:39.806Z,11.83
2018-12-25T03:15:09.378Z,11.67
2018-12-25T03:17:39.074Z,11.23
2018-12-25T03:20:08.566Z,11.77
2018-12-25T03:22:37.998Z,12.90
2018-12-25T03:25:07.369Z,12.87
2018-12-25T03:27:36.880Z,12.47
2018-12-25T03:30:06.321Z,13.00
2018-12-25T03:32:35.761Z,11.80
2018-12-25T03:35:05.205Z,14.17
2018-12-25T03:37:34.577Z,15.13
2018-12-25T03:40:04.100Z,13.67
2018-12-25T03:42:33.767Z,13.57
2018-12-25T03:45:03.225Z,13.20
2018-12-25T03:47:32.610Z,13.23
2018-12-25T03:50:10.419Z,12.80
2018-12-25T03:52:33.288Z,12.37
2018-12-25T03:55:02.719Z,11.77
2018-12-25T03:57:32.120Z,12.93
2018-12-25T04:00:01.505Z,14.03
2018-12-25T04:02:31.215Z,13.67
2018-12-25T04:05:00.612Z,13.33
2018-12-25T04:07:29.979Z,12.90
2018-12-25T04:09:59.428Z,13.23
2018-12-25T04:12:28.857Z,12.27
2018-12-25T04:14:58.451Z,11.80
2018-12-25T04:17:28.077Z,12.27
2018-12-25T04:19:57.449Z,12.17
2018-12-25T04:22:27.035Z,10.77
2018-12-25T04:24:56.414Z,10.97
2018-12-25T04:27:27.464Z,10.60
2018-12-25T04:29:56.845Z,10.13
2018-12-25T04:32:26.263Z,9.83
2018-12-25T04:34:55.698Z,10.30
2018-12-25T04:37:25.102Z,10.50
2018-12-25T04:39:54.508Z,9.60
2018-12-25T04:42:23.894Z,11.57
2018-12-25T04:44:53.652Z,11.57
2018-12-25T04:47:23.040Z,10.87
2018-12-25T04:49:52.442Z,9.57
2018-12-25T04:52:21.824Z,11.43
2018-12-25T04:54:51.211Z,10.73
2018-12-25T04:57:20.620Z,10.70
2018-12-25T04:59:50.104Z,10.67
2018-12-25T05:02:19.512Z,11.20
2018-12-25T05:04:49.721Z,10.87
2018-12-25T05:07:19.220Z,9.77
2018-12-25T05:09:48.721Z,10.67
2018-12-25T05:12:18.801Z,11.07
2018-12-25T05:14:48.204Z,11.43
2018-12-25T05:17:17.586Z,11.97
2018-12-25T05:19:47.005Z,10.93
2018-12-25T05:22:16.397Z,10.03
2018-12-25T05:24:45.936Z,10.63
2018-12-25T05:27:15.373Z,10.03
2018-12-25T05:29:44.783Z,10.33
2018-12-25T05:32:14.256Z,10.90
2018-12-25T05:34:43.693Z,10.63
2018-12-25T05:37:13.131Z,11.33
2018-12-25T05:39:42.499Z,11.70
2018-12-25T05:42:11.998Z,11.50
2018-12-25T05:44:43.361Z,10.67
2018-12-25T05:47:12.395Z,11.57
2018-12-25T05:49:41.808Z,10.90
2018-12-25T05:52:11.183Z,10.83
2018-12-25T05:54:40.592Z,11.10
2018-12-25T05:57:09.971Z,10.80
2018-12-25T05:59:39.399Z,11.27
2018-12-25T06:02:08.787Z,11.47
2018-12-25T06:04:38.163Z,11.57
2018-12-25T06:07:07.579Z,11.00
2018-12-25T06:09:36.971Z,12.87
2018-12-25T06:12:06.645Z,13.30
2018-12-25T06:14:36.012Z,11.07
2018-12-25T06:17:05.383Z,11.97
2018-12-25T06:19:34.795Z,12.43
2018-12-25T06:22:04.192Z,12.30
2018-12-25T06:24:33.600Z,12.23
2018-12-25T06:27:02.959Z,11.87
2018-12-25T06:29:32.523Z,12.13
2018-12-25T06:32:01.922Z,11.30
2018-12-25T06:34:31.295Z,11.00
2018-12-25T06:37:00.700Z,10.93
2018-12-25T06:39:30.150Z,11.60
2018-12-25T06:41:59.585Z,11.63
2018-12-25T06:44:28.951Z,10.93
2018-12-25T06:46:58.366Z,11.37
2018-12-25T06:49:27.743Z,12.93
2018-12-25T06:51:57.055Z,12.23
2018-12-25T06:54:26.473Z,11.97
2018-12-25T06:56:55.843Z,12.67
2018-12-25T06:59:25.413Z,12.10
2018-12-25T07:01:54.812Z,11.90
2018-12-25T07:04:24.191Z,11.83
2018-12-25T07:06:53.595Z,13.77
2018-12-25T07:09:23.229Z,12.73
2018-12-25T07:11:52.628Z,13.27
2018-12-25T07:14:22.000Z,13.60
2018-12-25T07:16:51.400Z,12.63
2018-12-25T07:19:20.783Z,13.93
2018-12-25T07:21:50.192Z,14.63
2018-12-25T07:24:19.629Z,14.00
2018-12-25T07:26:49.016Z,15.17
2018-12-25T07:29:18.416Z,15.87
2018-12-25T07:31:47.819Z,13.73
2018-12-25T07:34:17.211Z,13.77
2018-12-25T07:36:46.615Z,13.93
2018-12-25T07:39:16.015Z,14.07
2018-12-25T07:41:45.557Z,14.70
2018-12-25T07:44:14.944Z,15.33
2018-12-25T07:46:44.324Z,14.67
2018-12-25T07:49:13.744Z,13.93
2018-12-25T07:51:43.118Z,14.20
2018-12-25T07:54:12.536Z,15.37
2018-12-25T07:56:41.916Z,14.43
2018-12-25T07:59:11.308Z,15.37
2018-12-25T08:01:40.727Z,15.60
2018-12-25T08:04:10.135Z,15.33
2018-12-25T08:06:39.715Z,14.67
2018-12-25T08:09:09.096Z,14.83
2018-12-25T08:11:38.477Z,14.07
2018-12-25T08:14:07.891Z,14.80
2018-12-25T08:16:39.729Z,17.40
2018-12-25T08:19:09.153Z,15.33
2018-12-25T08:21:38.565Z,14.30
2018-12-25T08:24:08.075Z,15.87
2018-12-25T08:26:37.460Z,13.90
2018-12-25T08:29:06.843Z,14.90
2018-12-25T08:31:36.263Z,13.67
2018-12-25T08:34:05.689Z,15.70
2018-12-25T08:36:36.482Z,13.60
2018-12-25T08:39:07.631Z,13.47
2018-12-25T08:41:37.107Z,13.20
2018-12-25T08:44:06.516Z,14.77
2018-12-25T08:46:35.916Z,14.53
2018-12-25T08:49:05.518Z,13.20
2018-12-25T08:51:37.791Z,12.63
2018-12-25T08:54:06.119Z,12.60
2018-12-25T08:56:35.746Z,12.20
2018-12-25T08:59:05.131Z,10.30
2018-12-25T09:01:34.552Z,10.40
2018-12-25T09:04:03.944Z,11.13
2018-12-25T09:06:33.535Z,10.13
2018-12-25T09:09:03.547Z,9.77
2018-12-25T09:11:33.355Z,12.80
2018-12-25T09:14:03.036Z,10.77
2018-12-25T09:16:32.420Z,12.30
2018-12-25T09:19:01.822Z,15.90
2018-12-25T09:21:31.197Z,11.60
2018-12-25T09:24:00.683Z,11.67
2018-12-25T09:26:30.105Z,10.50
2018-12-25T09:28:59.487Z,11.63
2018-12-25T09:31:28.913Z,14.57
2018-12-25T09:33:58.432Z,33.40
2018-12-25T09:36:27.845Z,77.00
2018-12-25T09:38:57.288Z,13.67
2018-12-25T09:41:26.737Z,48.97
2018-12-25T09:43:56.115Z,39.87
2018-12-25T09:46:25.500Z,12.27
2018-12-25T09:48:54.894Z,12.47
2018-12-25T09:51:24.195Z,12.40
2018-12-25T09:53:53.650Z,12.27
2018-12-25T09:56:22.995Z,11.77
2018-12-25T09:58:52.508Z,12.27
2018-12-25T10:01:21.891Z,12.27
2018-12-25T10:03:51.274Z,13.73
2018-12-25T10:06:20.699Z,13.77
2018-12-25T10:08:50.107Z,11.40
2018-12-25T10:11:19.508Z,11.30
2018-12-25T10:13:48.901Z,11.00
2018-12-25T10:16:18.296Z,10.60
2018-12-25T10:18:47.691Z,11.70
2018-12-25T10:21:17.095Z,10.13
2018-12-25T10:23:46.463Z,9.87
2018-12-25T10:26:15.943Z,11.00
2018-12-25T10:28:45.348Z,11.40
2018-12-25T10:31:14.743Z,12.27
2018-12-25T10:33:44.112Z,10.43
2018-12-25T10:36:14.050Z,9.90
2018-12-25T10:38:43.452Z,10.93
2018-12-25T10:41:12.887Z,10.77
2018-12-25T10:43:42.307Z,10.37
2018-12-25T10:46:11.687Z,12.40
2018-12-25T10:48:41.065Z,10.87
2018-12-25T10:51:10.526Z,10.87
2018-12-25T10:53:39.910Z,9.83
2018-12-25T10:56:09.328Z,10.87
2018-12-25T10:58:38.710Z,9.20
2018-12-25T11:01:19.078Z,9.37
2018-12-25T11:03:48.470Z,9.57
2018-12-25T11:06:17.850Z,9.03
2018-12-25T11:08:47.271Z,10.80
2018-12-25T11:11:16.655Z,10.03
2018-12-25T11:13:46.098Z,9.73
2018-12-25T11:16:15.533Z,10.00
2018-12-25T11:18:49.021Z,10.00
2018-12-25T11:21:16.000Z,10.67
2018-12-25T11:23:45.388Z,10.73
2018-12-25T11:26:14.898Z,11.90
2018-12-25T11:28:44.325Z,8.67
2018-12-25T11:31:13.752Z,8.60
2018-12-25T11:33:43.192Z,8.67
2018-12-25T11:36:12.644Z,8.27
2018-12-25T11:38:42.099Z,8.27
2018-12-25T11:41:11.492Z,8.23
2018-12-25T11:43:40.887Z,7.80
2018-12-25T11:46:10.330Z,10.60
2018-12-25T11:48:39.704Z,8.80
2018-12-25T11:51:09.113Z,9.47
2018-12-25T11:53:38.491Z,9.10
2018-12-25T11:56:07.921Z,9.10
2018-12-25T11:58:37.316Z,8.70
2018-12-25T12:01:06.703Z,8.97
2018-12-25T12:03:36.108Z,8.53
2018-12-25T12:06:05.527Z,10.73
2018-12-25T12:08:34.951Z,11.27
2018-12-25T12:11:04.348Z,9.97
2018-12-25T12:13:33.767Z,9.77
2018-12-25T12:16:03.147Z,8.90
2018-12-25T12:18:32.697Z,9.03
2018-12-25T12:21:02.104Z,7.87
2018-12-25T12:23:31.513Z,8.70
2018-12-25T12:26:00.932Z,7.70
2018-12-25T12:28:30.335Z,8.87
2018-12-25T12:30:59.763Z,11.70
2018-12-25T12:33:29.177Z,11.87
2018-12-25T12:35:58.687Z,8.27
2018-12-25T12:38:28.033Z,10.43
2018-12-25T12:40:57.517Z,9.53
2018-12-25T12:43:26.924Z,13.60
2018-12-25T12:45:56.316Z,10.73
2018-12-25T12:48:25.749Z,9.87
2018-12-25T12:50:55.137Z,7.50
2018-12-25T12:53:24.537Z,9.93
2018-12-25T12:55:53.991Z,10.17
2018-12-25T12:58:24.484Z,8.93
2018-12-25T13:00:53.933Z,10.90
2018-12-25T13:03:23.319Z,7.73
2018-12-25T13:05:52.751Z,15.20
2018-12-25T13:08:22.173Z,11.70
2018-12-25T13:10:51.589Z,8.87
2018-12-25T13:13:20.984Z,7.53
2018-12-25T13:15:50.384Z,6.53
2018-12-25T13:18:19.791Z,7.20
2018-12-25T13:20:49.188Z,6.10
2018-12-25T13:23:18.609Z,7.37
2018-12-25T13:25:48.371Z,6.40
2018-12-25T13:28:17.773Z,6.50
2018-12-25T13:30:47.215Z,8.03
2018-12-25T13:33:16.621Z,7.67
2018-12-25T13:35:46.043Z,7.60
2018-12-25T13:38:15.481Z,7.73
2018-12-25T13:40:44.929Z,6.60
2018-12-25T13:43:14.339Z,6.90
2018-12-25T13:45:43.676Z,5.60
2018-12-25T13:48:13.180Z,5.93
2018-12-25T13:50:42.591Z,6.27
2018-12-25T13:53:12.115Z,5.63
2018-12-25T13:55:41.515Z,6.60
2018-12-25T13:58:10.911Z,21.30
2018-12-25T14:00:40.335Z,9.33
2018-12-25T14:03:09.723Z,8.00
2018-12-25T14:05:39.147Z,8.47
2018-12-25T14:08:08.567Z,8.33
2018-12-25T14:10:38.050Z,8.13
2018-12-25T14:13:07.544Z,8.63
2018-12-25T14:15:36.937Z,9.03
2018-12-25T14:18:06.364Z,8.90
2018-12-25T14:20:35.760Z,8.20
2018-12-25T14:23:11.225Z,12.83
2018-12-25T14:25:36.248Z,9.60
2018-12-25T14:28:05.679Z,10.77
2018-12-25T14:30:35.076Z,15.93
2018-12-25T14:33:04.462Z,9.70
2018-12-25T14:35:33.885Z,8.73
2018-12-25T14:38:03.591Z,8.40
2018-12-25T14:40:33.043Z,9.70
2018-12-25T14:43:02.501Z,8.90
2018-12-25T14:45:31.868Z,8.10
2018-12-25T14:48:01.279Z,8.40
2018-12-25T14:50:30.676Z,9.27
2018-12-25T14:53:00.112Z,11.40
2018-12-25T14:55:29.520Z,9.87
2018-12-25T14:57:59.070Z,8.80
2018-12-25T15:00:28.446Z,11.07
2018-12-25T15:02:57.859Z,11.50
2018-12-25T15:05:27.310Z,11.80
2018-12-25T15:07:56.729Z,9.60
2018-12-25T15:10:26.143Z,9.33
2018-12-25T15:12:55.540Z,10.37
2018-12-25T15:15:24.947Z,10.87
2018-12-25T18:37:47.114Z,24.63
2018-12-25T18:40:16.520Z,19.67
2018-12-25T18:42:45.928Z,20.13
2018-12-25T18:45:15.384Z,19.77
2018-12-25T18:47:44.775Z,18.43
2018-12-25T18:50:14.165Z,18.53
2018-12-25T18:52:43.620Z,21.63
2018-12-25T18:55:13.206Z,23.00
2018-12-25T18:57:42.741Z,19.90
2018-12-25T19:00:12.460Z,20.83
2018-12-25T19:02:42.136Z,20.47
2018-12-25T19:05:11.573Z,20.53
2018-12-25T19:07:41.087Z,18.60
2018-12-25T19:10:11.021Z,18.73
2018-12-25T19:12:40.495Z,17.77
2018-12-25T19:15:22.327Z,20.57
2018-12-25T19:17:52.727Z,18.53
2018-12-25T19:20:22.067Z,17.43
2018-12-25T19:22:51.450Z,22.30
2018-12-25T19:25:20.871Z,21.33
2018-12-25T19:27:50.272Z,18.33
2018-12-25T19:30:22.047Z,19.17
2018-12-25T19:32:51.479Z,21.63
2018-12-25T19:35:20.871Z,21.43
2018-12-25T19:37:50.292Z,21.13
2018-12-25T19:40:20.522Z,19.73
2018-12-25T19:42:49.919Z,20.60
2018-12-25T19:45:19.834Z,20.63
2018-12-25T19:47:49.219Z,37.17
2018-12-25T19:50:18.691Z,28.30
2018-12-25T19:52:48.162Z,29.13
2018-12-25T19:55:17.543Z,22.37
2018-12-25T19:57:46.955Z,21.17
2018-12-25T20:00:16.604Z,21.90
2018-12-25T20:03:06.936Z,23.67
2018-12-25T20:06:38.492Z,21.57
2018-12-25T20:09:49.161Z,19.80
2018-12-25T20:12:55.384Z,17.30
2018-12-25T20:16:03.771Z,16.17
2018-12-25T20:18:48.812Z,14.93
2018-12-25T20:22:02.246Z,15.43
2018-12-25T20:25:08.138Z,18.40
2018-12-25T20:27:54.616Z,19.23
2018-12-25T20:31:05.155Z,16.03
2018-12-25T20:33:49.785Z,17.20
2018-12-25T20:36:49.817Z,16.83
2018-12-25T20:40:15.315Z,19.20
2018-12-25T20:43:26.033Z,20.57
2018-12-25T20:46:42.331Z,20.33
2018-12-25T20:50:00.451Z,18.77
2018-12-25T20:53:13.732Z,19.37
2018-12-25T20:56:26.635Z,21.53
2018-12-25T20:59:45.747Z,18.83
2018-12-25T21:02:56.488Z,18.07
2018-12-25T21:05:57.782Z,20.93
2018-12-25T21:09:02.644Z,20.80
2018-12-25T21:12:09.560Z,22.03
2018-12-25T21:15:30.781Z,21.77
2018-12-25T21:18:50.019Z,21.43
2018-12-25T21:21:59.665Z,23.60
2018-12-25T21:25:09.754Z,22.97
2018-12-25T21:27:34.131Z,19.57
2018-12-25T21:30:08.600Z,22.80
2018-12-25T21:32:40.311Z,20.60
2018-12-25T21:35:13.568Z,21.13
2018-12-25T21:37:43.019Z,22.47
2018-12-25T21:40:12.665Z,21.27
2018-12-25T21:42:42.544Z,22.27
2018-12-25T21:45:12.669Z,23.27
2018-12-25T21:47:42.379Z,21.70
2018-12-25T21:50:12.359Z,22.77
2018-12-25T21:52:41.971Z,25.07
2018-12-25T21:55:18.556Z,25.17
2018-12-25T21:57:43.188Z,24.07
2018-12-25T22:00:15.565Z,22.87
2018-12-25T22:02:44.940Z,31.87
2018-12-25T22:05:15.003Z,24.57
2018-12-25T22:07:44.371Z,23.03
2018-12-25T22:10:13.748Z,27.90
2018-12-25T22:12:43.167Z,28.47
2018-12-25T22:15:12.590Z,29.93
2018-12-25T22:17:41.979Z,28.87
2018-12-25T22:20:24.908Z,27.70
2018-12-25T22:22:54.397Z,27.00
2018-12-25T22:25:27.223Z,24.10
2018-12-25T22:27:54.848Z,23.47
2018-12-25T22:30:24.243Z,26.40
2018-12-25T22:32:53.628Z,24.97
2018-12-25T22:35:23.019Z,26.10
2018-12-25T22:37:52.469Z,24.90
2018-12-25T22:40:21.956Z,27.07
2018-12-25T22:42:51.355Z,26.17
2018-12-25T22:45:20.751Z,25.03
2018-12-25T22:47:50.147Z,26.57
2018-12-25T22:50:19.655Z,25.27
2018-12-25T22:52:49.040Z,23.20
2018-12-25T22:55:18.415Z,23.77
2018-12-25T22:57:47.843Z,23.43
2018-12-25T23:00:19.116Z,24.17
2018-12-25T23:02:48.495Z,24.53
2018-12-25T23:05:17.904Z,24.93
2018-12-25T23:07:47.288Z,24.67
2018-12-25T23:10:16.692Z,32.27
2018-12-25T23:12:46.078Z,34.40
2018-12-25T23:15:15.480Z,36.50
2018-12-25T23:17:44.871Z,35.60
2018-12-25T23:20:14.240Z,32.67
2018-12-25T23:22:43.643Z,32.60
2018-12-25T23:25:13.038Z,34.07
2018-12-25T23:27:42.444Z,35.53
2018-12-25T23:30:11.851Z,33.60
2018-12-25T23:32:41.370Z,31.83
2018-12-25T23:35:10.804Z,31.60
2018-12-25T23:37:40.271Z,30.53
2018-12-25T23:40:09.689Z,28.23
2018-12-25T23:42:39.135Z,31.83
2018-12-25T23:45:08.572Z,28.87
2018-12-25T23:47:37.961Z,27.40
2018-12-25T23:50:07.327Z,28.77
2018-12-25T23:52:36.727Z,28.30
2018-12-25T23:55:06.131Z,27.30
2018-12-25T23:57:35.537Z,28.60
